createdAt,value
2023-01-22T00:01:49.516Z,8.60
2023-01-22T00:06:53.763Z,9.70
2023-01-22T00:11:57.914Z,8.63
2023-01-22T00:17:00.835Z,9.17
2023-01-22T00:22:05.100Z,9.17
2023-01-22T00:27:08.173Z,9.40
2023-01-22T00:32:11.235Z,9.53
2023-01-22T00:37:17.954Z,11.20
2023-01-22T00:42:20.883Z,9.13
2023-01-22T00:47:23.791Z,8.20
2023-01-22T00:52:28.337Z,7.57
2023-01-22T00:57:31.260Z,9.57
2023-01-22T01:02:55.529Z,10.40
2023-01-22T01:07:59.840Z,9.03
2023-01-22T01:13:02.800Z,9.07
2023-01-22T01:18:06.017Z,9.23
2023-01-22T01:23:10.326Z,9.23
2023-01-22T01:28:13.229Z,8.33
2023-01-22T01:33:16.139Z,8.93
2023-01-22T01:38:20.396Z,9.50
2023-01-22T01:43:23.875Z,9.70
2023-01-22T01:48:32.446Z,10.20
2023-01-22T01:53:37.663Z,10.20
2023-01-22T01:58:43.335Z,10.57
2023-01-22T02:03:47.860Z,9.17
2023-01-22T02:08:53.758Z,10.83
2023-01-22T02:14:02.793Z,12.20
2023-01-22T02:19:05.731Z,12.17
2023-01-22T02:24:11.937Z,9.87
2023-01-22T02:29:15.957Z,10.10
2023-01-22T02:34:19.417Z,8.97
2023-01-22T02:39:24.707Z,13.13
2023-01-22T02:44:27.731Z,13.43
2023-01-22T02:49:30.644Z,9.77
2023-01-22T02:54:35.072Z,14.37
2023-01-22T02:59:38.049Z,14.87
2023-01-22T03:04:41.216Z,10.40
2023-01-22T03:09:47.097Z,15.80
2023-01-22T03:15:07.352Z,11.50
2023-01-22T03:20:30.007Z,10.97
2023-01-22T03:25:34.325Z,14.03
2023-01-22T03:30:37.590Z,11.70
2023-01-22T03:35:40.761Z,11.73
2023-01-22T03:40:51.062Z,11.47
2023-01-22T03:45:55.128Z,11.13
2023-01-22T03:51:05.545Z,12.97
2023-01-22T03:56:12.526Z,13.07
2023-01-22T04:01:18.186Z,11.77
2023-01-22T04:06:22.292Z,13.10
2023-01-22T04:11:26.692Z,14.97
2023-01-22T04:16:30.096Z,13.27
2023-01-22T04:22:00.118Z,10.10
2023-01-22T04:27:05.099Z,10.43
2023-01-22T04:32:08.095Z,14.40
2023-01-22T04:37:25.887Z,13.57
2023-01-22T04:42:30.318Z,13.13
2023-01-22T04:47:33.360Z,13.90
2023-01-22T04:52:36.306Z,12.20
2023-01-22T04:57:41.308Z,12.00
2023-01-22T05:02:44.236Z,13.50
2023-01-22T05:07:47.860Z,14.87
2023-01-22T05:12:52.635Z,16.20
2023-01-22T05:17:55.785Z,17.23
2023-01-22T05:22:58.719Z,18.90
2023-01-22T05:28:04.339Z,17.00
2023-01-22T05:33:20.110Z,14.37
2023-01-22T05:38:23.223Z,14.13
2023-01-22T05:43:27.654Z,23.10
2023-01-22T05:48:36.347Z,18.77
2023-01-22T05:53:47.947Z,17.97
2023-01-22T05:58:53.056Z,16.90
2023-01-22T06:03:56.093Z,18.40
2023-01-22T06:09:00.881Z,16.17
2023-01-22T06:14:10.541Z,18.50
2023-01-22T06:19:13.605Z,17.67
2023-01-22T06:24:20.992Z,17.60
2023-01-22T06:29:25.321Z,20.07
2023-01-22T06:34:28.917Z,23.00
2023-01-22T06:39:35.612Z,22.20
2023-01-22T06:44:47.835Z,17.20
2023-01-22T06:49:51.117Z,23.17
2023-01-22T06:54:54.093Z,25.40
2023-01-22T06:59:59.111Z,25.77
2023-01-22T07:05:02.035Z,22.13
2023-01-22T07:10:05.521Z,23.17
2023-01-22T07:15:10.348Z,21.60
2023-01-22T07:20:13.592Z,28.67
2023-01-22T07:25:16.854Z,31.63
2023-01-22T07:30:21.448Z,31.03
2023-01-22T07:35:24.329Z,40.00
2023-01-22T07:40:28.016Z,23.80
2023-01-22T07:45:32.410Z,22.77
2023-01-22T07:50:36.883Z,24.43
2023-01-22T07:55:41.557Z,27.53
2023-01-22T08:00:45.824Z,22.40
2023-01-22T08:05:48.738Z,31.83
2023-01-22T08:10:51.605Z,20.33
2023-01-22T08:15:56.125Z,24.27
2023-01-22T08:21:01.053Z,16.07
2023-01-22T08:26:05.044Z,18.37
2023-01-22T08:31:16.459Z,23.53
2023-01-22T08:36:27.963Z,23.77
2023-01-22T08:41:30.886Z,26.90
2023-01-22T08:46:38.527Z,20.30
2023-01-22T08:51:41.464Z,17.23
2023-01-22T08:56:44.403Z,18.00
2023-01-22T09:01:48.924Z,16.10
2023-01-22T09:06:51.857Z,18.60
2023-01-22T09:11:54.720Z,18.23
2023-01-22T09:16:58.948Z,22.43
2023-01-22T09:22:06.305Z,21.67
2023-01-22T09:27:12.061Z,18.70
2023-01-22T09:32:16.303Z,13.43
2023-01-22T09:37:19.279Z,19.10
2023-01-22T09:42:27.207Z,22.00
2023-01-22T09:47:35.319Z,20.70
2023-01-22T09:52:40.263Z,21.50
2023-01-22T09:57:47.659Z,23.07
2023-01-22T10:02:56.302Z,26.93
2023-01-22T10:08:05.252Z,22.33
2023-01-22T10:13:15.921Z,20.60
2023-01-22T10:18:35.494Z,23.23
2023-01-22T10:23:38.647Z,27.73
2023-01-22T10:28:45.343Z,27.53
2023-01-22T10:33:56.703Z,22.43
2023-01-22T10:39:09.833Z,23.50
2023-01-22T10:44:20.738Z,21.53
2023-01-22T10:49:26.653Z,26.13
2023-01-22T10:54:33.297Z,26.63
2023-01-22T10:59:36.581Z,26.67
2023-01-22T11:04:40.815Z,26.17
2023-01-22T11:09:47.688Z,32.00
2023-01-22T11:15:03.481Z,29.33
2023-01-22T11:20:21.266Z,31.57
2023-01-22T11:25:25.108Z,28.93
2023-01-22T11:30:51.320Z,38.67
2023-01-22T11:36:01.359Z,31.83
2023-01-22T11:41:18.837Z,26.77
2023-01-22T11:46:37.064Z,30.00
2023-01-22T11:51:56.095Z,31.57
2023-01-22T11:57:12.629Z,30.73
2023-01-22T12:02:31.096Z,26.73
2023-01-22T12:07:52.116Z,27.20
2023-01-22T12:13:04.431Z,29.20
2023-01-22T12:18:42.566Z,29.23
2023-01-22T12:23:52.666Z,27.30
2023-01-22T12:29:01.260Z,29.27
2023-01-22T12:34:13.105Z,29.80
2023-01-22T12:39:27.113Z,27.00
2023-01-22T12:44:42.867Z,29.17
2023-01-22T12:49:48.450Z,29.03
2023-01-22T12:54:56.400Z,26.07
2023-01-22T13:00:10.254Z,29.17
2023-01-22T13:05:20.852Z,32.23
2023-01-22T13:10:30.170Z,33.23
2023-01-22T13:15:37.277Z,28.00
2023-01-22T13:21:02.720Z,34.80
2023-01-22T13:26:07.173Z,27.90
2023-01-22T13:31:17.805Z,27.20
2023-01-22T13:36:20.785Z,26.00
2023-01-22T13:41:31.336Z,28.37
2023-01-22T13:46:38.479Z,32.13
2023-01-22T13:51:42.983Z,30.83
2023-01-22T13:56:47.290Z,27.53
2023-01-22T14:01:50.964Z,27.10
2023-01-22T14:06:53.923Z,28.63
2023-01-22T14:11:58.832Z,31.80
2023-01-22T14:17:01.773Z,32.87
2023-01-22T14:22:04.724Z,32.10
2023-01-22T14:27:09.131Z,31.63
2023-01-22T14:32:12.010Z,34.47
2023-01-22T14:37:16.547Z,29.07
2023-01-22T14:42:20.817Z,32.80
2023-01-22T14:47:23.745Z,31.77
2023-01-22T14:52:26.659Z,31.80
2023-01-22T14:57:30.905Z,27.67
2023-01-22T15:02:35.501Z,29.03
2023-01-22T15:07:39.093Z,31.10
2023-01-22T15:12:48.065Z,27.40
2023-01-22T15:17:51.632Z,30.97
2023-01-22T15:22:54.606Z,28.30
2023-01-22T15:27:58.858Z,30.10
2023-01-22T15:33:01.731Z,26.87
2023-01-22T15:38:05.373Z,22.80
2023-01-22T15:43:10.398Z,25.73
2023-01-22T15:48:15.805Z,31.83
2023-01-22T15:53:19.574Z,24.93
2023-01-22T15:58:23.874Z,25.67
2023-01-22T16:03:26.784Z,48.30
2023-01-22T16:08:29.760Z,21.23
2023-01-22T16:13:34.459Z,35.13
2023-01-22T16:18:42.542Z,21.40
2023-01-22T16:23:47.048Z,27.13
2023-01-22T16:28:52.923Z,19.83
2023-01-22T16:33:58.471Z,22.00
2023-01-22T16:39:01.728Z,21.07
2023-01-22T16:44:10.275Z,25.90
2023-01-22T16:49:15.550Z,22.17
2023-01-22T16:54:21.757Z,20.20
2023-01-22T16:59:27.052Z,20.80
2023-01-22T17:04:30.753Z,26.60
2023-01-22T17:09:36.796Z,23.67
2023-01-22T17:14:41.187Z,20.50
2023-01-22T17:19:44.048Z,18.73
2023-01-22T17:24:47.718Z,24.03
2023-01-22T17:29:52.029Z,21.23
2023-01-22T17:34:54.921Z,23.90
2023-01-22T17:39:57.761Z,23.90
2023-01-22T17:45:02.071Z,26.43
2023-01-22T17:50:05.397Z,22.20
2023-01-22T17:55:08.927Z,21.90
2023-01-22T18:00:17.449Z,19.80
2023-01-22T18:05:21.195Z,22.83
2023-01-22T18:10:24.214Z,21.23
2023-01-22T18:15:28.511Z,24.40
2023-01-22T18:20:32.162Z,21.00
2023-01-22T18:25:35.057Z,49.17
2023-01-22T18:30:39.418Z,23.30
2023-01-22T18:35:43.337Z,25.37
2023-01-22T18:40:46.178Z,21.43
2023-01-22T18:45:50.496Z,26.10
2023-01-22T18:50:53.912Z,27.43
2023-01-22T18:56:00.365Z,28.23
2023-01-22T19:01:11.687Z,25.50
2023-01-22T19:06:16.840Z,22.30
2023-01-22T19:11:19.839Z,25.73
2023-01-22T19:16:25.274Z,24.40
2023-01-22T19:21:28.719Z,22.23
2023-01-22T19:26:33.524Z,24.50
2023-01-22T19:31:39.905Z,23.53
2023-01-22T19:36:42.890Z,23.47
2023-01-22T19:41:45.800Z,24.33
2023-01-22T19:46:50.093Z,23.60
2023-01-22T19:51:53.203Z,26.30
2023-01-22T19:56:56.384Z,22.30
2023-01-22T20:02:00.696Z,22.53
2023-01-22T20:07:05.886Z,20.40
2023-01-22T20:12:11.260Z,21.00
2023-01-22T20:17:16.736Z,22.43
2023-01-22T20:22:19.618Z,19.80
2023-01-22T20:27:22.477Z,19.20
2023-01-22T20:32:28.628Z,23.27
2023-01-22T20:37:32.093Z,26.73
2023-01-22T20:42:34.984Z,22.77
2023-01-22T20:47:39.297Z,22.00
2023-01-22T20:52:42.187Z,24.83
2023-01-22T20:57:45.056Z,22.37
2023-01-22T21:02:51.762Z,22.60
2023-01-22T21:07:54.667Z,24.43
2023-01-22T21:12:57.539Z,26.63
2023-01-22T21:18:01.807Z,22.40
2023-01-22T21:23:04.788Z,22.80
2023-01-22T21:28:07.724Z,24.27
2023-01-22T21:33:11.938Z,21.17
2023-01-22T21:38:14.799Z,19.83
2023-01-22T21:43:35.203Z,17.10
2023-01-22T21:48:39.449Z,19.30
2023-01-22T21:53:42.344Z,24.30
2023-01-22T21:58:45.598Z,22.90
2023-01-22T22:03:50.114Z,18.37
2023-01-22T22:08:53.040Z,19.33
2023-01-22T22:13:56.684Z,20.13
2023-01-22T22:19:01.220Z,19.47
2023-01-22T22:24:04.774Z,17.23
2023-01-22T22:29:09.257Z,20.70
2023-01-22T22:34:13.512Z,17.73
2023-01-22T22:39:16.425Z,17.47
2023-01-22T22:44:19.347Z,19.20
2023-01-22T22:49:23.612Z,20.23
2023-01-22T22:54:27.392Z,22.33
2023-01-22T22:59:30.269Z,19.53
2023-01-22T23:04:35.257Z,16.93
2023-01-22T23:09:38.444Z,17.33
2023-01-22T23:14:41.315Z,21.03
2023-01-22T23:19:45.544Z,20.97
2023-01-22T23:24:48.451Z,22.00
2023-01-22T23:29:52.120Z,25.27
2023-01-22T23:34:56.409Z,21.37
2023-01-22T23:39:59.327Z,23.20
2023-01-22T23:45:02.235Z,30.47
2023-01-22T23:50:08.662Z,30.63
2023-01-22T23:55:11.911Z,27.07
